sensor_id;sensor_type;location;lat;lon;timestamp;P1;durP1;ratioP1;P2;durP2;ratioP2
21305;SDS011;10812;51.838;5.838;2022-12-05T00:01:40;40.20;;;19.03;;
21305;SDS011;10812;51.838;5.838;2022-12-05T00:04:10;35.57;;;19.30;;
21305;SDS011;10812;51.838;5.838;2022-12-05T00:06:41;38.30;;;20.23;;
21305;SDS011;10812;51.838;5.838;2022-12-05T00:09:10;37.30;;;19.77;;
21305;SDS011;10812;51.838;5.838;2022-12-05T00:11:40;35.87;;;19.87;;
21305;SDS011;10812;51.838;5.838;2022-12-05T00:14:10;30.43;;;17.53;;
21305;SDS011;10812;51.838;5.838;2022-12-05T00:16:41;36.33;;;20.00;;
21305;SDS011;10812;51.838;5.838;2022-12-05T00:19:10;36.17;;;20.20;;
21305;SDS011;10812;51.838;5.838;2022-12-05T00:21:40;33.43;;;19.13;;
21305;SDS011;10812;51.838;5.838;2022-12-05T00:24:10;33.87;;;18.37;;
21305;SDS011;10812;51.838;5.838;2022-12-05T00:26:39;38.80;;;18.07;;
21305;SDS011;10812;51.838;5.838;2022-12-05T00:29:09;36.77;;;19.07;;
21305;SDS011;10812;51.838;5.838;2022-12-05T00:31:42;31.10;;;17.90;;
21305;SDS011;10812;51.838;5.838;2022-12-05T00:34:10;35.83;;;19.80;;
21305;SDS011;10812;51.838;5.838;2022-12-05T00:36:39;35.30;;;20.00;;
21305;SDS011;10812;51.838;5.838;2022-12-05T00:39:08;34.10;;;18.83;;
21305;SDS011;10812;51.838;5.838;2022-12-05T00:41:37;35.63;;;19.27;;
21305;SDS011;10812;51.838;5.838;2022-12-05T00:44:06;34.77;;;18.97;;
21305;SDS011;10812;51.838;5.838;2022-12-05T00:46:34;34.73;;;18.57;;
21305;SDS011;10812;51.838;5.838;2022-12-05T00:49:05;34.10;;;19.33;;
21305;SDS011;10812;51.838;5.838;2022-12-05T00:51:34;36.93;;;19.20;;
21305;SDS011;10812;51.838;5.838;2022-12-05T00:54:05;36.40;;;20.73;;
21305;SDS011;10812;51.838;5.838;2022-12-05T00:56:34;42.37;;;21.23;;
21305;SDS011;10812;51.838;5.838;2022-12-05T00:59:03;43.27;;;21.37;;
21305;SDS011;10812;51.838;5.838;2022-12-05T01:01:32;42.67;;;21.90;;
21305;SDS011;10812;51.838;5.838;2022-12-05T01:07:45;41.47;;;22.33;;
21305;SDS011;10812;51.838;5.838;2022-12-05T01:10:13;42.90;;;21.53;;
21305;SDS011;10812;51.838;5.838;2022-12-05T01:12:41;44.13;;;22.73;;
21305;SDS011;10812;51.838;5.838;2022-12-05T01:15:09;47.47;;;22.10;;
21305;SDS011;10812;51.838;5.838;2022-12-05T01:17:38;43.37;;;22.23;;
21305;SDS011;10812;51.838;5.838;2022-12-05T01:20:06;41.47;;;22.50;;
21305;SDS011;10812;51.838;5.838;2022-12-05T01:22:35;47.53;;;21.77;;
21305;SDS011;10812;51.838;5.838;2022-12-05T01:25:05;44.07;;;23.20;;
21305;SDS011;10812;51.838;5.838;2022-12-05T01:27:33;48.73;;;23.20;;
21305;SDS011;10812;51.838;5.838;2022-12-05T01:30:02;42.50;;;21.77;;
21305;SDS011;10812;51.838;5.838;2022-12-05T01:32:31;47.87;;;23.13;;
21305;SDS011;10812;51.838;5.838;2022-12-05T01:35:00;50.73;;;23.87;;
21305;SDS011;10812;51.838;5.838;2022-12-05T01:37:28;43.73;;;22.40;;
21305;SDS011;10812;51.838;5.838;2022-12-05T01:39:56;50.03;;;24.07;;
21305;SDS011;10812;51.838;5.838;2022-12-05T01:42:26;43.33;;;22.03;;
21305;SDS011;10812;51.838;5.838;2022-12-05T01:44:59;50.50;;;23.67;;
21305;SDS011;10812;51.838;5.838;2022-12-05T01:47:30;50.90;;;24.40;;
21305;SDS011;10812;51.838;5.838;2022-12-05T01:50:02;49.67;;;22.40;;
21305;SDS011;10812;51.838;5.838;2022-12-05T01:52:31;45.23;;;24.30;;
21305;SDS011;10812;51.838;5.838;2022-12-05T01:58:52;51.93;;;24.90;;
21305;SDS011;10812;51.838;5.838;2022-12-05T02:01:23;48.67;;;25.60;;
21305;SDS011;10812;51.838;5.838;2022-12-05T02:03:51;52.33;;;23.87;;
21305;SDS011;10812;51.838;5.838;2022-12-05T02:06:24;51.70;;;24.57;;
21305;SDS011;10812;51.838;5.838;2022-12-05T02:08:54;52.27;;;25.13;;
21305;SDS011;10812;51.838;5.838;2022-12-05T02:11:23;50.13;;;24.63;;
21305;SDS011;10812;51.838;5.838;2022-12-05T02:14:08;48.23;;;24.80;;
21305;SDS011;10812;51.838;5.838;2022-12-05T02:16:48;57.13;;;24.57;;
21305;SDS011;10812;51.838;5.838;2022-12-05T02:22:24;51.23;;;24.10;;
21305;SDS011;10812;51.838;5.838;2022-12-05T02:25:24;54.27;;;24.57;;
21305;SDS011;10812;51.838;5.838;2022-12-05T02:31:22;47.53;;;23.13;;
21305;SDS011;10812;51.838;5.838;2022-12-05T02:33:55;47.90;;;24.67;;
21305;SDS011;10812;51.838;5.838;2022-12-05T02:36:30;50.97;;;24.63;;
21305;SDS011;10812;51.838;5.838;2022-12-05T02:39:03;52.67;;;23.63;;
21305;SDS011;10812;51.838;5.838;2022-12-05T02:41:39;43.70;;;23.50;;
21305;SDS011;10812;51.838;5.838;2022-12-05T02:44:15;44.60;;;22.30;;
21305;SDS011;10812;51.838;5.838;2022-12-05T02:46:48;46.83;;;24.57;;
21305;SDS011;10812;51.838;5.838;2022-12-05T02:49:20;47.10;;;23.83;;
21305;SDS011;10812;51.838;5.838;2022-12-05T02:51:51;48.07;;;23.07;;
21305;SDS011;10812;51.838;5.838;2022-12-05T02:54:23;44.63;;;24.10;;
21305;SDS011;10812;51.838;5.838;2022-12-05T02:56:54;49.07;;;23.33;;
21305;SDS011;10812;51.838;5.838;2022-12-05T02:59:23;45.17;;;23.30;;
21305;SDS011;10812;51.838;5.838;2022-12-05T03:07:13;49.47;;;22.73;;
21305;SDS011;10812;51.838;5.838;2022-12-05T03:09:46;48.93;;;25.53;;
21305;SDS011;10812;51.838;5.838;2022-12-05T03:12:18;53.57;;;24.47;;
21305;SDS011;10812;51.838;5.838;2022-12-05T03:14:49;47.67;;;22.43;;
21305;SDS011;10812;51.838;5.838;2022-12-05T03:17:23;54.87;;;23.77;;
21305;SDS011;10812;51.838;5.838;2022-12-05T03:19:56;42.33;;;21.57;;
21305;SDS011;10812;51.838;5.838;2022-12-05T03:22:31;49.00;;;23.60;;
21305;SDS011;10812;51.838;5.838;2022-12-05T03:25:04;50.97;;;24.40;;
21305;SDS011;10812;51.838;5.838;2022-12-05T03:27:34;47.00;;;23.37;;
21305;SDS011;10812;51.838;5.838;2022-12-05T03:30:12;49.10;;;22.43;;
21305;SDS011;10812;51.838;5.838;2022-12-05T03:32:44;52.20;;;24.07;;
21305;SDS011;10812;51.838;5.838;2022-12-05T03:35:18;56.30;;;24.33;;
21305;SDS011;10812;51.838;5.838;2022-12-05T03:37:51;45.60;;;23.57;;
21305;SDS011;10812;51.838;5.838;2022-12-05T03:40:24;41.70;;;22.63;;
21305;SDS011;10812;51.838;5.838;2022-12-05T03:42:58;43.73;;;22.77;;
21305;SDS011;10812;51.838;5.838;2022-12-05T03:45:35;42.53;;;22.17;;
21305;SDS011;10812;51.838;5.838;2022-12-05T03:48:10;41.27;;;21.87;;
21305;SDS011;10812;51.838;5.838;2022-12-05T03:50:43;42.23;;;22.27;;
21305;SDS011;10812;51.838;5.838;2022-12-05T03:53:16;44.13;;;21.27;;
21305;SDS011;10812;51.838;5.838;2022-12-05T03:55:50;45.27;;;22.80;;
21305;SDS011;10812;51.838;5.838;2022-12-05T03:58:25;40.83;;;21.83;;
21305;SDS011;10812;51.838;5.838;2022-12-05T04:00:56;41.87;;;21.53;;
21305;SDS011;10812;51.838;5.838;2022-12-05T04:03:28;41.37;;;21.60;;
21305;SDS011;10812;51.838;5.838;2022-12-05T04:06:06;42.90;;;20.00;;
21305;SDS011;10812;51.838;5.838;2022-12-05T04:08:41;43.77;;;22.17;;
21305;SDS011;10812;51.838;5.838;2022-12-05T04:11:15;40.87;;;20.13;;
21305;SDS011;10812;51.838;5.838;2022-12-05T04:13:46;37.67;;;20.33;;
21305;SDS011;10812;51.838;5.838;2022-12-05T04:16:18;43.73;;;22.27;;
21305;SDS011;10812;51.838;5.838;2022-12-05T04:19:08;47.17;;;22.00;;
21305;SDS011;10812;51.838;5.838;2022-12-05T04:21:39;40.80;;;21.17;;
21305;SDS011;10812;51.838;5.838;2022-12-05T04:24:11;38.67;;;20.00;;
21305;SDS011;10812;51.838;5.838;2022-12-05T04:27:11;40.73;;;20.43;;
21305;SDS011;10812;51.838;5.838;2022-12-05T04:29:50;42.37;;;20.47;;
21305;SDS011;10812;51.838;5.838;2022-12-05T04:32:24;46.63;;;20.90;;
21305;SDS011;10812;51.838;5.838;2022-12-05T04:34:55;47.13;;;23.53;;
21305;SDS011;10812;51.838;5.838;2022-12-05T04:37:26;44.93;;;21.50;;
21305;SDS011;10812;51.838;5.838;2022-12-05T04:40:02;46.73;;;22.17;;
21305;SDS011;10812;51.838;5.838;2022-12-05T04:42:36;42.30;;;21.90;;
21305;SDS011;10812;51.838;5.838;2022-12-05T04:45:05;43.50;;;21.33;;
21305;SDS011;10812;51.838;5.838;2022-12-05T04:47:38;42.53;;;21.77;;
21305;SDS011;10812;51.838;5.838;2022-12-05T04:50:10;42.90;;;21.50;;
21305;SDS011;10812;51.838;5.838;2022-12-05T04:52:40;43.80;;;21.87;;
21305;SDS011;10812;51.838;5.838;2022-12-05T04:55:12;42.17;;;23.03;;
21305;SDS011;10812;51.838;5.838;2022-12-05T04:57:43;43.00;;;22.23;;
21305;SDS011;10812;51.838;5.838;2022-12-05T05:00:16;46.73;;;21.77;;
21305;SDS011;10812;51.838;5.838;2022-12-05T05:02:46;45.67;;;22.80;;
21305;SDS011;10812;51.838;5.838;2022-12-05T05:05:18;41.60;;;20.87;;
21305;SDS011;10812;51.838;5.838;2022-12-05T05:07:49;43.30;;;21.47;;
21305;SDS011;10812;51.838;5.838;2022-12-05T05:10:20;45.07;;;22.37;;
21305;SDS011;10812;51.838;5.838;2022-12-05T05:12:57;37.93;;;20.60;;
21305;SDS011;10812;51.838;5.838;2022-12-05T05:15:25;41.50;;;21.87;;
21305;SDS011;10812;51.838;5.838;2022-12-05T05:17:53;41.63;;;22.37;;
21305;SDS011;10812;51.838;5.838;2022-12-05T05:20:21;39.87;;;20.37;;
21305;SDS011;10812;51.838;5.838;2022-12-05T05:22:52;42.80;;;21.00;;
21305;SDS011;10812;51.838;5.838;2022-12-05T05:25:23;42.70;;;21.10;;
21305;SDS011;10812;51.838;5.838;2022-12-05T05:27:52;40.93;;;21.23;;
21305;SDS011;10812;51.838;5.838;2022-12-05T05:30:22;45.17;;;22.67;;
21305;SDS011;10812;51.838;5.838;2022-12-05T05:32:51;45.80;;;23.23;;
21305;SDS011;10812;51.838;5.838;2022-12-05T05:35:20;48.20;;;22.97;;
21305;SDS011;10812;51.838;5.838;2022-12-05T05:37:48;46.07;;;21.83;;
21305;SDS011;10812;51.838;5.838;2022-12-05T05:40:16;48.83;;;24.23;;
21305;SDS011;10812;51.838;5.838;2022-12-05T05:42:47;46.53;;;22.00;;
21305;SDS011;10812;51.838;5.838;2022-12-05T05:45:16;45.57;;;21.93;;
21305;SDS011;10812;51.838;5.838;2022-12-05T05:47:44;46.23;;;22.70;;
21305;SDS011;10812;51.838;5.838;2022-12-05T05:50:15;48.90;;;23.63;;
21305;SDS011;10812;51.838;5.838;2022-12-05T05:52:47;49.47;;;23.17;;
21305;SDS011;10812;51.838;5.838;2022-12-05T05:55:15;47.60;;;22.93;;
21305;SDS011;10812;51.838;5.838;2022-12-05T05:57:44;45.80;;;22.77;;
21305;SDS011;10812;51.838;5.838;2022-12-05T06:00:13;47.47;;;23.77;;
21305;SDS011;10812;51.838;5.838;2022-12-05T06:02:42;45.97;;;22.23;;
21305;SDS011;10812;51.838;5.838;2022-12-05T06:05:10;45.37;;;23.70;;
21305;SDS011;10812;51.838;5.838;2022-12-05T06:07:38;45.67;;;22.77;;
21305;SDS011;10812;51.838;5.838;2022-12-05T06:10:07;42.30;;;23.57;;
21305;SDS011;10812;51.838;5.838;2022-12-05T06:12:35;50.97;;;25.03;;
21305;SDS011;10812;51.838;5.838;2022-12-05T06:15:06;47.27;;;23.53;;
21305;SDS011;10812;51.838;5.838;2022-12-05T06:17:34;47.23;;;23.77;;
21305;SDS011;10812;51.838;5.838;2022-12-05T06:20:02;45.20;;;22.70;;
21305;SDS011;10812;51.838;5.838;2022-12-05T06:22:31;48.80;;;23.80;;
21305;SDS011;10812;51.838;5.838;2022-12-05T06:24:59;46.87;;;23.47;;
21305;SDS011;10812;51.838;5.838;2022-12-05T06:27:28;40.63;;;21.90;;
21305;SDS011;10812;51.838;5.838;2022-12-05T06:29:56;44.97;;;21.40;;
21305;SDS011;10812;51.838;5.838;2022-12-05T06:32:27;46.83;;;23.37;;
21305;SDS011;10812;51.838;5.838;2022-12-05T06:34:56;49.13;;;23.03;;
21305;SDS011;10812;51.838;5.838;2022-12-05T06:37:24;42.10;;;21.43;;
21305;SDS011;10812;51.838;5.838;2022-12-05T06:39:52;48.37;;;21.73;;
21305;SDS011;10812;51.838;5.838;2022-12-05T06:42:20;45.23;;;23.13;;
21305;SDS011;10812;51.838;5.838;2022-12-05T06:44:48;43.77;;;20.90;;
21305;SDS011;10812;51.838;5.838;2022-12-05T06:47:16;47.03;;;23.90;;
21305;SDS011;10812;51.838;5.838;2022-12-05T06:49:45;45.13;;;22.37;;
21305;SDS011;10812;51.838;5.838;2022-12-05T06:52:13;39.10;;;20.30;;
21305;SDS011;10812;51.838;5.838;2022-12-05T06:54:41;40.53;;;21.07;;
21305;SDS011;10812;51.838;5.838;2022-12-05T06:57:09;42.50;;;22.60;;
21305;SDS011;10812;51.838;5.838;2022-12-05T06:59:38;39.33;;;21.40;;
21305;SDS011;10812;51.838;5.838;2022-12-05T07:02:06;40.47;;;20.73;;
21305;SDS011;10812;51.838;5.838;2022-12-05T07:04:33;36.43;;;19.83;;
21305;SDS011;10812;51.838;5.838;2022-12-05T07:07:03;46.63;;;22.43;;
21305;SDS011;10812;51.838;5.838;2022-12-05T07:09:32;42.87;;;22.10;;
21305;SDS011;10812;51.838;5.838;2022-12-05T07:12:14;42.53;;;22.47;;
21305;SDS011;10812;51.838;5.838;2022-12-05T07:14:44;38.57;;;21.07;;
21305;SDS011;10812;51.838;5.838;2022-12-05T07:17:15;44.67;;;22.30;;
21305;SDS011;10812;51.838;5.838;2022-12-05T07:19:43;45.23;;;22.23;;
21305;SDS011;10812;51.838;5.838;2022-12-05T07:22:14;45.80;;;22.73;;
21305;SDS011;10812;51.838;5.838;2022-12-05T07:24:42;39.77;;;21.43;;
21305;SDS011;10812;51.838;5.838;2022-12-05T07:27:11;44.10;;;22.63;;
21305;SDS011;10812;51.838;5.838;2022-12-05T07:29:40;41.20;;;22.17;;
21305;SDS011;10812;51.838;5.838;2022-12-05T07:32:08;38.00;;;20.20;;
21305;SDS011;10812;51.838;5.838;2022-12-05T07:34:36;44.20;;;23.17;;
21305;SDS011;10812;51.838;5.838;2022-12-05T07:37:05;42.57;;;20.90;;
21305;SDS011;10812;51.838;5.838;2022-12-05T07:39:34;48.27;;;23.30;;
21305;SDS011;10812;51.838;5.838;2022-12-05T07:42:02;47.37;;;22.33;;
21305;SDS011;10812;51.838;5.838;2022-12-05T07:44:31;39.93;;;21.37;;
21305;SDS011;10812;51.838;5.838;2022-12-05T07:46:59;41.50;;;20.90;;
21305;SDS011;10812;51.838;5.838;2022-12-05T07:49:27;39.20;;;20.93;;
21305;SDS011;10812;51.838;5.838;2022-12-05T07:51:55;38.37;;;21.43;;
21305;SDS011;10812;51.838;5.838;2022-12-05T07:54:23;45.23;;;23.80;;
21305;SDS011;10812;51.838;5.838;2022-12-05T07:56:53;42.53;;;22.30;;
21305;SDS011;10812;51.838;5.838;2022-12-05T07:59:21;40.67;;;22.03;;
21305;SDS011;10812;51.838;5.838;2022-12-05T08:01:49;39.30;;;20.73;;
21305;SDS011;10812;51.838;5.838;2022-12-05T08:04:17;41.47;;;21.03;;
21305;SDS011;10812;51.838;5.838;2022-12-05T08:06:45;42.10;;;21.97;;
21305;SDS011;10812;51.838;5.838;2022-12-05T08:09:13;40.57;;;20.97;;
21305;SDS011;10812;51.838;5.838;2022-12-05T08:11:41;38.63;;;19.17;;
21305;SDS011;10812;51.838;5.838;2022-12-05T08:14:18;36.63;;;19.40;;
21305;SDS011;10812;51.838;5.838;2022-12-05T08:16:47;35.63;;;19.13;;
21305;SDS011;10812;51.838;5.838;2022-12-05T08:19:15;36.10;;;19.17;;
21305;SDS011;10812;51.838;5.838;2022-12-05T08:21:43;36.43;;;19.93;;
21305;SDS011;10812;51.838;5.838;2022-12-05T08:24:11;36.43;;;19.97;;
21305;SDS011;10812;51.838;5.838;2022-12-05T08:26:39;34.27;;;18.90;;
21305;SDS011;10812;51.838;5.838;2022-12-05T08:29:08;35.20;;;20.00;;
21305;SDS011;10812;51.838;5.838;2022-12-05T08:31:39;37.17;;;20.57;;
21305;SDS011;10812;51.838;5.838;2022-12-05T08:34:10;35.47;;;18.83;;
21305;SDS011;10812;51.838;5.838;2022-12-05T08:36:39;35.53;;;19.30;;
21305;SDS011;10812;51.838;5.838;2022-12-05T08:39:09;37.60;;;19.63;;
21305;SDS011;10812;51.838;5.838;2022-12-05T08:41:41;36.33;;;20.13;;
21305;SDS011;10812;51.838;5.838;2022-12-05T08:44:10;35.47;;;18.90;;
21305;SDS011;10812;51.838;5.838;2022-12-05T08:46:43;36.57;;;20.30;;
21305;SDS011;10812;51.838;5.838;2022-12-05T08:49:13;31.90;;;18.93;;
21305;SDS011;10812;51.838;5.838;2022-12-05T08:51:41;33.83;;;20.10;;
21305;SDS011;10812;51.838;5.838;2022-12-05T08:54:09;36.40;;;20.27;;
21305;SDS011;10812;51.838;5.838;2022-12-05T08:56:38;34.67;;;18.37;;
21305;SDS011;10812;51.838;5.838;2022-12-05T08:59:06;35.33;;;19.43;;
21305;SDS011;10812;51.838;5.838;2022-12-05T09:01:34;33.87;;;17.60;;
21305;SDS011;10812;51.838;5.838;2022-12-05T09:04:06;30.80;;;17.63;;
21305;SDS011;10812;51.838;5.838;2022-12-05T09:06:35;30.17;;;16.83;;
21305;SDS011;10812;51.838;5.838;2022-12-05T09:09:05;27.57;;;16.37;;
21305;SDS011;10812;51.838;5.838;2022-12-05T09:11:35;32.20;;;18.30;;
21305;SDS011;10812;51.838;5.838;2022-12-05T09:14:06;26.30;;;15.87;;
21305;SDS011;10812;51.838;5.838;2022-12-05T09:16:35;30.73;;;17.33;;
21305;SDS011;10812;51.838;5.838;2022-12-05T09:19:08;31.87;;;17.43;;
21305;SDS011;10812;51.838;5.838;2022-12-05T09:21:38;29.53;;;16.77;;
21305;SDS011;10812;51.838;5.838;2022-12-05T09:24:06;26.13;;;14.83;;
21305;SDS011;10812;51.838;5.838;2022-12-05T09:26:36;26.33;;;15.13;;
21305;SDS011;10812;51.838;5.838;2022-12-05T09:29:05;28.10;;;15.63;;
21305;SDS011;10812;51.838;5.838;2022-12-05T09:31:39;25.43;;;14.90;;
21305;SDS011;10812;51.838;5.838;2022-12-05T09:34:09;28.70;;;16.37;;
21305;SDS011;10812;51.838;5.838;2022-12-05T09:36:39;26.83;;;15.07;;
21305;SDS011;10812;51.838;5.838;2022-12-05T09:39:08;27.00;;;16.90;;
21305;SDS011;10812;51.838;5.838;2022-12-05T09:41:49;26.10;;;14.23;;
21305;SDS011;10812;51.838;5.838;2022-12-05T09:44:41;24.53;;;15.37;;
21305;SDS011;10812;51.838;5.838;2022-12-05T09:47:36;22.17;;;14.50;;
21305;SDS011;10812;51.838;5.838;2022-12-05T09:50:13;24.83;;;14.90;;
21305;SDS011;10812;51.838;5.838;2022-12-05T09:52:48;22.10;;;14.47;;
21305;SDS011;10812;51.838;5.838;2022-12-05T09:55:41;26.77;;;14.27;;
21305;SDS011;10812;51.838;5.838;2022-12-05T09:58:16;23.13;;;14.10;;
21305;SDS011;10812;51.838;5.838;2022-12-05T10:00:53;25.33;;;13.57;;
21305;SDS011;10812;51.838;5.838;2022-12-05T10:03:28;21.67;;;14.67;;
21305;SDS011;10812;51.838;5.838;2022-12-05T10:06:10;21.40;;;13.33;;
21305;SDS011;10812;51.838;5.838;2022-12-05T10:08:47;22.83;;;14.87;;
21305;SDS011;10812;51.838;5.838;2022-12-05T10:11:25;23.77;;;14.27;;
21305;SDS011;10812;51.838;5.838;2022-12-05T10:14:00;21.10;;;13.33;;
21305;SDS011;10812;51.838;5.838;2022-12-05T10:16:36;22.60;;;13.63;;
21305;SDS011;10812;51.838;5.838;2022-12-05T10:19:09;23.40;;;14.73;;
21305;SDS011;10812;51.838;5.838;2022-12-05T10:21:46;22.20;;;15.27;;
21305;SDS011;10812;51.838;5.838;2022-12-05T10:24:20;22.33;;;13.57;;
21305;SDS011;10812;51.838;5.838;2022-12-05T10:26:53;20.23;;;12.80;;
21305;SDS011;10812;51.838;5.838;2022-12-05T10:29:26;23.73;;;13.87;;
21305;SDS011;10812;51.838;5.838;2022-12-05T10:32:00;22.77;;;14.03;;
21305;SDS011;10812;51.838;5.838;2022-12-05T10:34:32;20.77;;;12.37;;
21305;SDS011;10812;51.838;5.838;2022-12-05T10:37:09;20.10;;;13.17;;
21305;SDS011;10812;51.838;5.838;2022-12-05T10:39:41;16.07;;;10.33;;
21305;SDS011;10812;51.838;5.838;2022-12-05T10:42:11;16.13;;;9.93;;
21305;SDS011;10812;51.838;5.838;2022-12-05T10:44:42;15.03;;;9.67;;
21305;SDS011;10812;51.838;5.838;2022-12-05T10:47:10;15.33;;;10.00;;
21305;SDS011;10812;51.838;5.838;2022-12-05T10:49:39;14.07;;;9.57;;
21305;SDS011;10812;51.838;5.838;2022-12-05T10:52:08;15.47;;;9.43;;
21305;SDS011;10812;51.838;5.838;2022-12-05T10:54:40;14.53;;;9.30;;
21305;SDS011;10812;51.838;5.838;2022-12-05T10:57:19;13.37;;;9.17;;
21305;SDS011;10812;51.838;5.838;2022-12-05T10:59:48;14.20;;;9.13;;
21305;SDS011;10812;51.838;5.838;2022-12-05T11:02:19;14.03;;;9.47;;
21305;SDS011;10812;51.838;5.838;2022-12-05T11:04:51;12.13;;;9.13;;
21305;SDS011;10812;51.838;5.838;2022-12-05T11:07:25;12.87;;;9.10;;
21305;SDS011;10812;51.838;5.838;2022-12-05T11:09:56;13.20;;;8.77;;
21305;SDS011;10812;51.838;5.838;2022-12-05T11:12:26;11.17;;;8.30;;
21305;SDS011;10812;51.838;5.838;2022-12-05T11:15:00;11.87;;;7.93;;
21305;SDS011;10812;51.838;5.838;2022-12-05T11:17:31;12.27;;;7.97;;
21305;SDS011;10812;51.838;5.838;2022-12-05T11:20:02;15.00;;;9.03;;
21305;SDS011;10812;51.838;5.838;2022-12-05T11:22:52;10.97;;;8.07;;
21305;SDS011;10812;51.838;5.838;2022-12-05T11:25:25;10.23;;;7.60;;
21305;SDS011;10812;51.838;5.838;2022-12-05T11:27:57;9.43;;;7.63;;
21305;SDS011;10812;51.838;5.838;2022-12-05T11:30:27;11.50;;;8.17;;
21305;SDS011;10812;51.838;5.838;2022-12-05T11:33:10;11.33;;;8.10;;
21305;SDS011;10812;51.838;5.838;2022-12-05T11:35:44;12.77;;;8.30;;
21305;SDS011;10812;51.838;5.838;2022-12-05T11:38:15;10.10;;;7.57;;
21305;SDS011;10812;51.838;5.838;2022-12-05T11:40:46;10.00;;;7.60;;
21305;SDS011;10812;51.838;5.838;2022-12-05T11:43:37;11.67;;;7.40;;
21305;SDS011;10812;51.838;5.838;2022-12-05T11:46:17;9.17;;;7.53;;
21305;SDS011;10812;51.838;5.838;2022-12-05T11:49:02;10.03;;;7.43;;
21305;SDS011;10812;51.838;5.838;2022-12-05T11:51:47;9.13;;;7.20;;
21305;SDS011;10812;51.838;5.838;2022-12-05T11:54:27;9.63;;;6.17;;
21305;SDS011;10812;51.838;5.838;2022-12-05T11:57:33;9.33;;;7.33;;
21305;SDS011;10812;51.838;5.838;2022-12-05T12:00:20;8.97;;;6.60;;
21305;SDS011;10812;51.838;5.838;2022-12-05T12:05:49;8.40;;;6.37;;
21305;SDS011;10812;51.838;5.838;2022-12-05T12:08:27;11.30;;;7.57;;
21305;SDS011;10812;51.838;5.838;2022-12-05T12:11:00;7.93;;;6.33;;
21305;SDS011;10812;51.838;5.838;2022-12-05T12:13:42;9.97;;;7.03;;
21305;SDS011;10812;51.838;5.838;2022-12-05T12:16:25;13.60;;;8.20;;
21305;SDS011;10812;51.838;5.838;2022-12-05T12:19:07;9.90;;;7.60;;
21305;SDS011;10812;51.838;5.838;2022-12-05T12:21:58;9.50;;;7.00;;
21305;SDS011;10812;51.838;5.838;2022-12-05T12:24:46;9.13;;;7.57;;
21305;SDS011;10812;51.838;5.838;2022-12-05T12:27:35;10.40;;;6.80;;
21305;SDS011;10812;51.838;5.838;2022-12-05T12:30:11;10.70;;;7.17;;
21305;SDS011;10812;51.838;5.838;2022-12-05T12:32:46;9.70;;;6.80;;
21305;SDS011;10812;51.838;5.838;2022-12-05T12:35:27;9.17;;;7.20;;
21305;SDS011;10812;51.838;5.838;2022-12-05T12:38:00;9.13;;;6.70;;
21305;SDS011;10812;51.838;5.838;2022-12-05T12:40:41;8.20;;;6.30;;
21305;SDS011;10812;51.838;5.838;2022-12-05T12:43:18;10.87;;;7.33;;
21305;SDS011;10812;51.838;5.838;2022-12-05T12:46:26;9.57;;;6.87;;
21305;SDS011;10812;51.838;5.838;2022-12-05T12:49:07;9.13;;;6.37;;
21305;SDS011;10812;51.838;5.838;2022-12-05T12:51:49;7.13;;;5.73;;
21305;SDS011;10812;51.838;5.838;2022-12-05T12:54:22;8.77;;;6.17;;
21305;SDS011;10812;51.838;5.838;2022-12-05T12:57:25;8.03;;;6.43;;
21305;SDS011;10812;51.838;5.838;2022-12-05T13:00:02;9.70;;;6.40;;
21305;SDS011;10812;51.838;5.838;2022-12-05T13:02:38;8.87;;;6.23;;
21305;SDS011;10812;51.838;5.838;2022-12-05T13:05:15;9.53;;;6.43;;
21305;SDS011;10812;51.838;5.838;2022-12-05T13:07:50;8.03;;;6.40;;
21305;SDS011;10812;51.838;5.838;2022-12-05T13:10:24;9.03;;;6.60;;
21305;SDS011;10812;51.838;5.838;2022-12-05T13:12:56;8.97;;;6.23;;
21305;SDS011;10812;51.838;5.838;2022-12-05T13:15:30;9.03;;;6.10;;
21305;SDS011;10812;51.838;5.838;2022-12-05T13:18:02;7.53;;;5.87;;
21305;SDS011;10812;51.838;5.838;2022-12-05T13:20:33;7.37;;;6.47;;
21305;SDS011;10812;51.838;5.838;2022-12-05T13:23:02;7.20;;;6.13;;
21305;SDS011;10812;51.838;5.838;2022-12-05T13:25:34;9.47;;;6.27;;
21305;SDS011;10812;51.838;5.838;2022-12-05T13:28:05;8.07;;;6.27;;
21305;SDS011;10812;51.838;5.838;2022-12-05T13:30:52;8.07;;;6.23;;
21305;SDS011;10812;51.838;5.838;2022-12-05T13:33:28;7.97;;;5.77;;
21305;SDS011;10812;51.838;5.838;2022-12-05T13:36:03;8.13;;;6.00;;
21305;SDS011;10812;51.838;5.838;2022-12-05T13:38:56;8.47;;;5.87;;
21305;SDS011;10812;51.838;5.838;2022-12-05T13:41:43;7.23;;;5.60;;
21305;SDS011;10812;51.838;5.838;2022-12-05T13:44:32;8.43;;;5.90;;
21305;SDS011;10812;51.838;5.838;2022-12-05T13:47:05;10.67;;;7.23;;
21305;SDS011;10812;51.838;5.838;2022-12-05T13:49:46;9.87;;;6.77;;
21305;SDS011;10812;51.838;5.838;2022-12-05T13:52:20;9.20;;;6.67;;
21305;SDS011;10812;51.838;5.838;2022-12-05T13:54:52;10.63;;;7.30;;
21305;SDS011;10812;51.838;5.838;2022-12-05T13:57:43;9.13;;;7.10;;
21305;SDS011;10812;51.838;5.838;2022-12-05T14:03:05;9.13;;;5.87;;
21305;SDS011;10812;51.838;5.838;2022-12-05T14:05:48;8.47;;;6.90;;
21305;SDS011;10812;51.838;5.838;2022-12-05T14:11:22;8.00;;;5.67;;
21305;SDS011;10812;51.838;5.838;2022-12-05T14:13:50;10.30;;;6.87;;
21305;SDS011;10812;51.838;5.838;2022-12-05T14:19:23;9.20;;;5.47;;
21305;SDS011;10812;51.838;5.838;2022-12-05T14:25:27;7.77;;;6.17;;
21305;SDS011;10812;51.838;5.838;2022-12-05T14:28:28;8.03;;;6.43;;
21305;SDS011;10812;51.838;5.838;2022-12-05T14:31:10;8.63;;;6.47;;
21305;SDS011;10812;51.838;5.838;2022-12-05T14:34:02;8.83;;;6.20;;
21305;SDS011;10812;51.838;5.838;2022-12-05T14:36:52;9.73;;;7.30;;
21305;SDS011;10812;51.838;5.838;2022-12-05T14:39:28;8.87;;;5.87;;
21305;SDS011;10812;51.838;5.838;2022-12-05T14:42:00;8.20;;;6.63;;
21305;SDS011;10812;51.838;5.838;2022-12-05T14:44:31;9.57;;;7.17;;
21305;SDS011;10812;51.838;5.838;2022-12-05T14:47:02;10.67;;;8.10;;
21305;SDS011;10812;51.838;5.838;2022-12-05T14:49:49;9.60;;;6.87;;
21305;SDS011;10812;51.838;5.838;2022-12-05T14:52:21;9.93;;;7.40;;
21305;SDS011;10812;51.838;5.838;2022-12-05T14:54:51;11.27;;;8.67;;
21305;SDS011;10812;51.838;5.838;2022-12-05T14:57:21;13.17;;;8.27;;
21305;SDS011;10812;51.838;5.838;2022-12-05T14:59:51;10.87;;;8.33;;
21305;SDS011;10812;51.838;5.838;2022-12-05T15:02:23;12.60;;;8.30;;
21305;SDS011;10812;51.838;5.838;2022-12-05T15:04:55;12.27;;;8.63;;
21305;SDS011;10812;51.838;5.838;2022-12-05T15:07:30;12.97;;;9.90;;
21305;SDS011;10812;51.838;5.838;2022-12-05T15:10:00;14.20;;;9.60;;
21305;SDS011;10812;51.838;5.838;2022-12-05T15:12:32;13.90;;;10.00;;
21305;SDS011;10812;51.838;5.838;2022-12-05T15:15:06;15.43;;;10.40;;
21305;SDS011;10812;51.838;5.838;2022-12-05T15:17:43;16.07;;;10.03;;
21305;SDS011;10812;51.838;5.838;2022-12-05T15:20:15;13.50;;;9.00;;
21305;SDS011;10812;51.838;5.838;2022-12-05T15:22:49;15.27;;;10.00;;
21305;SDS011;10812;51.838;5.838;2022-12-05T15:25:21;14.83;;;9.80;;
21305;SDS011;10812;51.838;5.838;2022-12-05T15:27:52;14.40;;;9.63;;
21305;SDS011;10812;51.838;5.838;2022-12-05T15:30:21;15.47;;;10.87;;
21305;SDS011;10812;51.838;5.838;2022-12-05T15:32:49;11.67;;;8.53;;
21305;SDS011;10812;51.838;5.838;2022-12-05T15:35:25;12.40;;;8.23;;
21305;SDS011;10812;51.838;5.838;2022-12-05T15:37:57;10.60;;;7.93;;